Arlington, South Dakota
Current Conditions -  °F | °C
As of 6:35 AM on Friday 24 Oct 2014 (Local Time) from KMDS Reporting Station
Moderate Fog Moderate Fog  
Wind Chill:   Ceiling: 100
Heat Index:   Visibility: 0.25mi
Dew Point:   Wind: 5mph
Humidity: 100%   Direction: 200°SSW
Pressure: 29.84"   Gusts: NA
Location:  44.36°N, 97.13°W
Report Text: KMDS 241135Z AUTO 20004KT 1/4SM FG BKN001 07/07 A2984 RMK AO2
Loading
Personal Weather Stations






























Interactive Weather Map
Tropical Storm Tracking
New forecast layout! Learn more

10-Day Weather Forecast

Advertisements
Track Severe Weather on mobile